createdAt,value
2022-11-13T00:01:38.421Z,845.37
2022-11-13T00:04:05.607Z,439.80
2022-11-13T00:06:32.714Z,404.50
2022-11-13T00:08:59.787Z,199.80
2022-11-13T00:11:26.879Z,246.07
2022-11-13T00:13:53.976Z,365.20
2022-11-13T00:16:22.232Z,298.13
2022-11-13T00:18:49.346Z,637.43
2022-11-13T00:21:27.334Z,478.83
2022-11-13T00:23:55.819Z,223.83
2022-11-13T00:26:24.291Z,96.47
2022-11-13T00:28:55.555Z,166.00
2022-11-13T00:31:22.822Z,919.07
2022-11-13T00:36:37.095Z,303.17
2022-11-13T00:39:04.180Z,472.60
2022-11-13T00:41:31.264Z,380.07
2022-11-13T00:43:58.432Z,721.27
2022-11-13T00:46:25.618Z,651.13
2022-11-13T00:48:52.739Z,427.87
2022-11-13T00:51:19.944Z,279.17
2022-11-13T00:53:47.148Z,116.63
2022-11-13T00:56:14.210Z,336.87
2022-11-13T00:58:41.410Z,391.20
2022-11-13T01:01:10.208Z,585.07
2022-11-13T01:03:37.770Z,596.33
2022-11-13T01:06:16.031Z,394.57
2022-11-13T01:08:43.254Z,486.53
2022-11-13T01:11:14.673Z,596.43
2022-11-13T01:13:43.336Z,684.30
2022-11-13T01:16:11.383Z,557.57
2022-11-13T01:18:38.616Z,466.27
2022-11-13T01:21:16.133Z,111.73
2022-11-13T01:23:43.269Z,463.27
2022-11-13T01:26:15.312Z,744.47
2022-11-13T01:28:42.959Z,593.53
2022-11-13T01:31:11.703Z,568.63
2022-11-13T01:33:39.023Z,621.27
2022-11-13T01:36:07.918Z,517.97
2022-11-13T01:38:36.851Z,370.37
2022-11-13T01:41:04.577Z,628.60
2022-11-13T01:43:33.113Z,371.00
2022-11-13T01:46:00.235Z,421.27
2022-11-13T01:48:29.793Z,593.50
2022-11-13T01:50:57.131Z,505.03
2022-11-13T01:53:24.307Z,338.83
2022-11-13T01:55:51.523Z,254.57
2022-11-13T01:58:18.661Z,493.07
2022-11-13T02:00:45.771Z,537.67
2022-11-13T02:03:12.913Z,545.83
2022-11-13T02:05:40.108Z,320.77
2022-11-13T02:08:07.223Z,680.77
2022-11-13T02:10:34.326Z,164.43
2022-11-13T02:13:01.429Z,339.83
2022-11-13T02:15:29.054Z,300.33
2022-11-13T02:17:57.813Z,267.70
2022-11-13T02:20:31.223Z,386.70
2022-11-13T02:23:03.679Z,636.90
2022-11-13T02:25:31.091Z,238.00
2022-11-13T02:27:58.259Z,391.07
2022-11-13T02:30:27.617Z,281.10
2022-11-13T02:32:55.725Z,509.70
2022-11-13T02:35:27.572Z,310.93
2022-11-13T02:37:55.720Z,234.47
2022-11-13T02:40:22.920Z,363.20
2022-11-13T02:42:50.039Z,236.57
2022-11-13T02:45:17.567Z,161.00
2022-11-13T02:47:44.757Z,770.83
2022-11-13T02:50:12.259Z,508.47
2022-11-13T02:52:39.381Z,342.80
2022-11-13T02:55:06.691Z,333.50
2022-11-13T02:57:33.833Z,203.27
2022-11-13T03:00:00.900Z,167.77
2022-11-13T03:02:28.027Z,215.07
2022-11-13T03:05:12.438Z,167.53
2022-11-13T03:07:40.677Z,218.20
2022-11-13T03:10:08.221Z,286.80
2022-11-13T03:12:35.393Z,146.20
2022-11-13T03:15:02.512Z,152.27
2022-11-13T03:17:32.545Z,145.77
2022-11-13T03:19:59.679Z,130.07
2022-11-13T03:22:27.353Z,159.83
2022-11-13T03:24:54.443Z,172.67
2022-11-13T03:27:21.551Z,192.97
2022-11-13T03:29:48.745Z,392.13
2022-11-13T03:32:15.861Z,182.80
2022-11-13T03:34:43.070Z,143.83
2022-11-13T03:37:10.179Z,327.33
2022-11-13T03:39:37.262Z,212.70
2022-11-13T03:42:04.360Z,179.83
2022-11-13T03:44:31.454Z,318.80
2022-11-13T03:46:58.569Z,166.70
2022-11-13T03:49:25.729Z,180.67
2022-11-13T03:51:52.838Z,178.93
2022-11-13T03:54:20.030Z,281.83
2022-11-13T03:56:47.138Z,403.90
2022-11-13T03:59:14.237Z,214.67
2022-11-13T04:01:41.397Z,103.57
2022-11-13T04:04:08.627Z,316.73
2022-11-13T04:06:35.757Z,281.57
2022-11-13T04:09:02.915Z,155.93
2022-11-13T04:11:29.982Z,146.07
2022-11-13T04:13:57.109Z,218.77
2022-11-13T04:16:24.271Z,81.90
2022-11-13T04:18:51.426Z,78.57
2022-11-13T04:21:18.505Z,615.23
2022-11-13T04:23:45.698Z,263.77
2022-11-13T04:26:12.782Z,95.10
2022-11-13T04:28:39.897Z,518.27
2022-11-13T04:31:07.018Z,351.43
2022-11-13T04:33:34.067Z,183.23
2022-11-13T04:36:01.896Z,208.07
2022-11-13T04:38:29.219Z,121.90
2022-11-13T04:41:15.345Z,148.97
2022-11-13T04:43:42.456Z,155.50
2022-11-13T04:46:09.588Z,653.43
2022-11-13T04:48:36.691Z,554.13
2022-11-13T04:51:03.825Z,179.87
2022-11-13T04:53:30.886Z,109.43
2022-11-13T04:55:58.029Z,183.70
2022-11-13T04:58:25.248Z,277.23
2022-11-13T05:00:52.491Z,145.93
2022-11-13T05:03:19.611Z,213.97
2022-11-13T05:05:46.672Z,203.40
2022-11-13T05:08:13.826Z,506.63
2022-11-13T05:10:40.906Z,429.97
2022-11-13T05:13:07.971Z,104.20
2022-11-13T05:15:35.015Z,114.60
2022-11-13T05:18:02.145Z,139.70
2022-11-13T05:20:29.229Z,719.80
2022-11-13T05:22:56.296Z,599.10
2022-11-13T05:25:23.385Z,179.67
2022-11-13T05:27:50.478Z,536.10
2022-11-13T05:30:17.577Z,513.17
2022-11-13T05:32:44.663Z,321.53
2022-11-13T05:35:11.765Z,251.93
2022-11-13T05:37:38.836Z,139.53
2022-11-13T05:40:06.346Z,286.73
2022-11-13T05:42:33.425Z,1113.63
2022-11-13T05:45:00.591Z,674.23
2022-11-13T05:47:27.640Z,452.27
2022-11-13T05:49:54.725Z,579.97
2022-11-13T05:52:21.789Z,538.57
2022-11-13T05:54:48.858Z,756.00
2022-11-13T05:57:16.136Z,489.90
2022-11-13T05:59:43.214Z,569.07
2022-11-13T06:02:10.368Z,513.27
2022-11-13T06:04:37.481Z,546.43
2022-11-13T06:07:04.640Z,435.40
2022-11-13T06:09:31.802Z,289.13
2022-11-13T06:11:58.869Z,538.70
2022-11-13T06:14:25.983Z,974.13
2022-11-13T06:16:53.207Z,547.43
2022-11-13T06:19:20.332Z,732.30
2022-11-13T06:21:47.471Z,294.73
2022-11-13T06:24:14.594Z,691.03
2022-11-13T06:26:41.767Z,467.33
2022-11-13T06:29:10.871Z,165.00
2022-11-13T06:31:38.448Z,227.17
2022-11-13T06:34:06.171Z,290.67
2022-11-13T06:36:37.921Z,224.30
2022-11-13T06:39:09.171Z,257.43
2022-11-13T06:41:36.439Z,302.63
2022-11-13T06:44:03.675Z,243.47
2022-11-13T06:46:31.462Z,200.17
2022-11-13T06:48:58.730Z,247.33
2022-11-13T06:51:27.464Z,253.00
2022-11-13T06:53:54.667Z,214.10
2022-11-13T06:56:22.079Z,352.83
2022-11-13T06:58:49.349Z,159.53
2022-11-13T07:01:18.666Z,300.63
2022-11-13T07:03:45.820Z,203.67
2022-11-13T07:06:14.949Z,277.87
2022-11-13T07:08:42.780Z,183.37
2022-11-13T07:11:17.238Z,147.67
2022-11-13T07:13:44.783Z,328.43
2022-11-13T07:16:19.349Z,163.70
2022-11-13T07:18:53.219Z,358.50
2022-11-13T07:21:20.661Z,278.77
2022-11-13T07:23:48.813Z,240.13
2022-11-13T07:26:16.279Z,385.23
2022-11-13T07:28:43.352Z,225.30
2022-11-13T07:31:11.747Z,213.47
2022-11-13T07:33:38.837Z,161.87
2022-11-13T07:36:06.209Z,349.10
2022-11-13T07:38:33.287Z,251.10
2022-11-13T07:41:00.424Z,242.83
2022-11-13T07:43:27.512Z,204.53
2022-11-13T07:45:55.445Z,159.07
2022-11-13T07:48:23.125Z,230.13
2022-11-13T07:50:50.220Z,242.43
2022-11-13T07:53:18.168Z,162.10
2022-11-13T07:55:45.263Z,301.87
2022-11-13T07:58:12.426Z,117.07
2022-11-13T08:00:39.640Z,400.90
2022-11-13T08:03:07.601Z,142.17
2022-11-13T08:05:35.121Z,479.07
2022-11-13T08:08:02.463Z,197.10
2022-11-13T08:10:29.596Z,399.53
2022-11-13T08:13:04.088Z,200.10
2022-11-13T08:15:31.649Z,369.10
2022-11-13T08:18:00.825Z,636.97
2022-11-13T08:20:28.599Z,242.83
2022-11-13T08:22:59.664Z,252.73
2022-11-13T08:25:27.120Z,335.07
2022-11-13T08:27:54.869Z,184.50
2022-11-13T08:30:22.201Z,638.80
2022-11-13T08:32:49.336Z,667.37
2022-11-13T08:35:19.478Z,158.30
2022-11-13T08:37:47.149Z,690.93
2022-11-13T08:40:14.257Z,205.23
2022-11-13T08:42:41.352Z,113.33
2022-11-13T08:45:08.848Z,180.63
2022-11-13T08:47:36.121Z,133.67
2022-11-13T08:50:03.257Z,109.57
2022-11-13T08:52:30.330Z,268.20
2022-11-13T08:54:57.493Z,129.47
2022-11-13T08:57:24.571Z,119.77
2022-11-13T08:59:51.667Z,130.73
2022-11-13T09:02:18.879Z,127.47
2022-11-13T09:04:45.960Z,157.73
2022-11-13T09:07:13.184Z,410.60
2022-11-13T09:09:40.386Z,273.70
2022-11-13T09:12:07.513Z,42.60
2022-11-13T09:14:34.696Z,256.10
2022-11-13T09:17:01.982Z,55.87
2022-11-13T09:19:29.127Z,104.10
2022-11-13T09:21:58.978Z,46.73
2022-11-13T09:24:26.242Z,75.57
2022-11-13T09:26:53.340Z,117.57
2022-11-13T09:29:21.074Z,46.70
2022-11-13T09:31:48.155Z,93.40
2022-11-13T09:34:15.351Z,36.53
2022-11-13T09:36:42.478Z,55.50
2022-11-13T09:39:09.564Z,45.00
2022-11-13T09:41:48.856Z,63.90
2022-11-13T09:44:32.620Z,62.13
2022-11-13T09:47:12.821Z,27.57
2022-11-13T09:49:43.849Z,70.20
2022-11-13T09:52:16.598Z,31.73
2022-11-13T09:54:43.848Z,26.77
2022-11-13T09:57:13.706Z,53.67
2022-11-13T09:59:51.431Z,33.37
2022-11-13T10:02:28.278Z,90.97
2022-11-13T10:05:05.888Z,33.43
2022-11-13T10:07:42.488Z,79.83
2022-11-13T10:10:09.547Z,92.03
2022-11-13T10:12:36.834Z,66.77
2022-11-13T10:15:05.267Z,95.90
2022-11-13T10:17:32.335Z,36.73
2022-11-13T10:20:00.712Z,110.50
2022-11-13T10:22:39.659Z,125.87
2022-11-13T10:25:16.032Z,190.83
2022-11-13T10:27:43.671Z,39.40
2022-11-13T10:30:14.658Z,182.77
2022-11-13T10:32:41.831Z,33.40
2022-11-13T10:35:08.906Z,281.03
2022-11-13T10:37:49.713Z,41.13
2022-11-13T10:40:29.873Z,215.27
2022-11-13T10:43:05.655Z,58.07
2022-11-13T10:45:32.794Z,35.13
2022-11-13T10:48:04.598Z,30.20
2022-11-13T10:50:33.069Z,20.07
2022-11-13T10:53:00.187Z,17.00
2022-11-13T10:55:33.035Z,19.53
2022-11-13T10:58:01.434Z,16.23
2022-11-13T11:00:33.883Z,16.80
2022-11-13T11:03:01.368Z,16.53
2022-11-13T11:05:29.195Z,16.00
2022-11-13T11:07:57.152Z,13.57
2022-11-13T11:10:34.504Z,16.07
2022-11-13T11:13:07.071Z,13.53
2022-11-13T11:15:40.457Z,14.47
2022-11-13T11:18:15.660Z,14.83
2022-11-13T11:20:52.049Z,16.40
2022-11-13T11:23:23.399Z,15.87
2022-11-13T11:25:59.357Z,14.23
2022-11-13T11:28:37.990Z,17.40
2022-11-13T11:31:23.949Z,16.57
2022-11-13T11:33:51.004Z,16.77
2022-11-13T11:36:35.684Z,14.00
2022-11-13T11:39:25.979Z,14.10
2022-11-13T11:42:04.689Z,13.88
2022-11-13T11:44:34.893Z,16.38
2022-11-13T11:47:02.055Z,18.05
2022-11-13T11:49:29.760Z,16.85
2022-11-13T11:52:03.959Z,21.50
2022-11-13T11:54:34.392Z,15.65
2022-11-13T11:57:11.162Z,13.90
2022-11-13T11:59:44.237Z,15.43
2022-11-13T12:02:34.527Z,13.60
2022-11-13T12:05:20.507Z,14.65
2022-11-13T12:07:56.732Z,13.45
2022-11-13T12:10:26.622Z,12.60
2022-11-13T12:13:12.093Z,12.65
2022-11-13T12:15:45.382Z,11.45
2022-11-13T12:18:36.767Z,10.07
2022-11-13T12:21:08.880Z,11.52
2022-11-13T12:23:44.659Z,13.60
2022-11-13T12:26:20.254Z,16.10
2022-11-13T12:28:54.041Z,14.98
2022-11-13T12:31:39.061Z,14.88
2022-11-13T12:34:15.971Z,25.33
2022-11-13T12:36:43.575Z,18.00
2022-11-13T12:39:10.633Z,15.45
2022-11-13T12:41:43.827Z,17.88
2022-11-13T12:44:10.926Z,14.85
2022-11-13T12:46:39.811Z,16.13
2022-11-13T12:49:26.425Z,13.02
2022-11-13T12:51:54.762Z,14.30
2022-11-13T12:54:28.069Z,14.25
2022-11-13T12:57:05.612Z,18.27
2022-11-13T12:59:42.935Z,17.05
2022-11-13T13:02:10.014Z,15.98
2022-11-13T13:05:07.449Z,13.20
2022-11-13T13:07:46.852Z,12.68
2022-11-13T13:10:13.907Z,11.85
2022-11-13T13:12:49.816Z,12.88
2022-11-13T13:15:29.675Z,14.45
2022-11-13T13:18:15.554Z,12.15
2022-11-13T13:20:46.552Z,13.50
2022-11-13T13:23:14.585Z,13.68
2022-11-13T13:25:41.924Z,14.90
2022-11-13T13:28:09.024Z,15.25
2022-11-13T13:30:46.215Z,12.85
2022-11-13T13:33:39.678Z,13.70
2022-11-13T13:36:06.773Z,11.70
2022-11-13T13:38:39.008Z,14.88
2022-11-13T13:41:12.919Z,13.93
2022-11-13T13:43:52.217Z,12.98
2022-11-13T13:46:23.162Z,12.88
2022-11-13T13:48:51.085Z,16.90
2022-11-13T13:51:25.173Z,13.60
2022-11-13T13:53:52.377Z,13.88
2022-11-13T13:56:20.712Z,14.55
2022-11-13T13:58:48.002Z,15.32
2022-11-13T14:01:19.380Z,15.98
2022-11-13T14:03:47.188Z,14.23
2022-11-13T14:06:21.951Z,11.52
2022-11-13T14:08:49.096Z,12.95
2022-11-13T14:11:21.009Z,13.77
2022-11-13T14:13:48.212Z,11.95
2022-11-13T14:16:15.364Z,13.82
2022-11-13T14:18:42.506Z,39.42
2022-11-13T14:21:16.554Z,35.25
2022-11-13T14:23:49.526Z,21.30
2022-11-13T14:26:16.830Z,15.95
2022-11-13T14:28:57.119Z,13.27
2022-11-13T14:31:32.457Z,11.73
2022-11-13T14:34:04.076Z,15.55
2022-11-13T14:36:32.750Z,13.82
2022-11-13T14:38:59.925Z,14.18
2022-11-13T14:41:34.152Z,17.08
2022-11-13T14:44:01.555Z,12.50
2022-11-13T14:46:34.781Z,13.60
2022-11-13T14:49:02.160Z,14.60
2022-11-13T14:51:33.486Z,14.03
2022-11-13T14:54:08.924Z,12.57
2022-11-13T14:56:41.137Z,13.73
2022-11-13T14:59:19.360Z,23.13
2022-11-13T15:01:56.949Z,20.87
2022-11-13T15:04:24.576Z,21.30
2022-11-13T15:06:55.539Z,17.10
2022-11-13T15:09:23.851Z,15.10
2022-11-13T15:11:50.963Z,14.60
2022-11-13T15:14:19.049Z,17.23
2022-11-13T15:16:46.823Z,20.33
2022-11-13T15:19:18.538Z,22.27
2022-11-13T15:22:05.457Z,18.27
2022-11-13T15:24:33.718Z,15.27
2022-11-13T15:27:02.115Z,14.53
2022-11-13T15:29:29.219Z,23.27
2022-11-13T15:31:57.313Z,19.80
2022-11-13T15:34:24.532Z,22.03
2022-11-13T15:36:51.604Z,14.97
2022-11-13T15:39:23.741Z,13.33
2022-11-13T15:41:51.359Z,13.67
2022-11-13T15:44:18.825Z,20.47
2022-11-13T15:46:45.970Z,15.70
2022-11-13T15:49:13.063Z,18.43
2022-11-13T15:51:44.275Z,15.53
2022-11-13T15:54:16.290Z,14.53
2022-11-13T15:56:43.683Z,16.43
2022-11-13T15:59:13.019Z,14.67
2022-11-13T16:01:40.615Z,23.57
2022-11-13T16:04:08.306Z,26.00
2022-11-13T16:06:36.256Z,29.63
2022-11-13T16:09:04.583Z,46.67
2022-11-13T16:11:32.710Z,38.43
2022-11-13T16:13:59.907Z,36.47
2022-11-13T16:16:34.629Z,35.90
2022-11-13T16:19:03.576Z,31.50
2022-11-13T16:21:31.080Z,21.77
2022-11-13T16:23:58.184Z,21.07
2022-11-13T16:26:26.506Z,20.30
2022-11-13T16:31:42.307Z,44.47
2022-11-13T16:34:09.373Z,58.55
2022-11-13T16:36:36.477Z,48.87
2022-11-13T16:39:03.755Z,42.37
2022-11-13T16:41:31.831Z,30.63
2022-11-13T16:43:59.049Z,33.30
2022-11-13T16:46:30.509Z,31.37
2022-11-13T16:48:57.598Z,31.63
2022-11-13T16:51:24.915Z,33.67
2022-11-13T16:53:52.014Z,33.40
2022-11-13T16:56:20.044Z,32.40
2022-11-13T16:58:47.123Z,36.40
2022-11-13T17:01:17.785Z,38.20
2022-11-13T18:39:55.442Z,28.97
2022-11-13T18:42:22.539Z,33.07
2022-11-13T18:44:49.628Z,46.47
2022-11-13T18:47:17.759Z,43.07
2022-11-13T18:49:44.907Z,41.53
2022-11-13T18:52:12.007Z,40.20
2022-11-13T18:54:39.100Z,38.50
2022-11-13T18:57:06.453Z,37.67
2022-11-13T18:59:33.595Z,39.57
2022-11-13T19:02:00.757Z,38.40
2022-11-13T19:04:27.879Z,37.60
2022-11-13T19:06:55.059Z,41.03
2022-11-13T19:09:22.224Z,58.27
2022-11-13T19:11:50.213Z,76.17
2022-11-13T19:14:18.194Z,58.17
2022-11-13T19:16:45.569Z,52.83
2022-11-13T19:19:20.157Z,57.67
2022-11-13T19:21:47.653Z,39.00
2022-11-13T19:24:15.159Z,31.13
2022-11-13T19:26:42.734Z,34.03
2022-11-13T19:29:09.921Z,35.70
2022-11-13T19:31:37.044Z,32.50
2022-11-13T19:34:06.106Z,61.50
2022-11-13T19:36:33.729Z,44.77
2022-11-13T19:39:01.053Z,39.93
2022-11-13T19:41:28.922Z,38.20
2022-11-13T19:43:57.638Z,43.20
2022-11-13T19:46:24.715Z,58.13
2022-11-13T19:48:52.407Z,73.27
2022-11-13T19:51:20.744Z,75.37
2022-11-13T19:53:47.980Z,42.43
2022-11-13T19:56:16.141Z,84.27
2022-11-13T19:58:44.433Z,38.70
2022-11-13T20:01:12.237Z,38.00
2022-11-13T20:03:39.531Z,33.03
2022-11-13T20:06:07.446Z,31.73
2022-11-13T20:08:37.831Z,41.57
2022-11-13T20:11:06.106Z,40.10
2022-11-13T20:13:35.383Z,43.73
2022-11-13T20:16:02.559Z,42.53
2022-11-13T20:18:29.907Z,43.00
2022-11-13T20:20:57.398Z,40.87
2022-11-13T20:23:25.905Z,41.47
2022-11-13T20:25:53.970Z,43.70
2022-11-13T20:28:21.059Z,38.33
2022-11-13T20:30:48.211Z,43.57
2022-11-13T20:33:21.256Z,35.00
2022-11-13T20:35:55.575Z,43.77
2022-11-13T20:38:22.611Z,36.17
2022-11-13T20:40:49.694Z,43.13
2022-11-13T20:43:16.753Z,44.30
2022-11-13T20:45:43.816Z,54.83
2022-11-13T20:48:11.042Z,54.13
2022-11-13T20:50:38.637Z,52.67
2022-11-13T20:53:06.139Z,58.50
2022-11-13T20:55:33.247Z,56.23
2022-11-13T20:58:00.366Z,45.43
2022-11-13T21:00:27.441Z,48.77
2022-11-13T21:02:54.532Z,50.13
2022-11-13T21:05:21.633Z,59.93
2022-11-13T21:07:48.779Z,46.73
2022-11-13T21:10:16.087Z,48.30
2022-11-13T21:12:43.161Z,44.73
2022-11-13T21:15:10.379Z,45.40
2022-11-13T21:17:37.543Z,40.37
2022-11-13T21:20:05.724Z,38.97
2022-11-13T21:22:32.881Z,43.27
2022-11-13T21:24:59.942Z,36.37
2022-11-13T21:27:26.985Z,42.63
2022-11-13T21:29:54.094Z,40.90
2022-11-13T21:32:21.162Z,36.53
2022-11-13T21:34:48.252Z,40.53
2022-11-13T21:37:15.941Z,41.67
2022-11-13T21:39:43.010Z,35.97
2022-11-13T21:42:10.179Z,40.07
2022-11-13T21:44:37.748Z,42.07
2022-11-13T21:47:04.804Z,38.83
2022-11-13T21:49:31.906Z,41.73
2022-11-13T21:51:58.956Z,37.60
2022-11-13T21:54:26.076Z,44.00
2022-11-13T21:56:53.314Z,40.03
2022-11-13T21:59:20.418Z,41.97
2022-11-13T22:01:47.706Z,47.87
2022-11-13T22:04:14.801Z,49.30
2022-11-13T22:06:47.261Z,48.27
2022-11-13T22:09:18.231Z,44.43
2022-11-13T22:11:45.622Z,43.20
2022-11-13T22:14:12.754Z,42.13
2022-11-13T22:16:41.348Z,40.73
2022-11-13T22:19:11.254Z,42.40
2022-11-13T22:21:38.455Z,47.27
2022-11-13T22:24:05.684Z,55.50
2022-11-13T22:26:36.299Z,52.77
2022-11-13T22:29:03.393Z,47.70
2022-11-13T22:31:31.620Z,51.43
2022-11-13T22:33:58.846Z,52.03
2022-11-13T22:36:27.758Z,59.07
2022-11-13T22:38:55.096Z,54.93
2022-11-13T22:41:30.923Z,55.90
2022-11-13T22:44:02.169Z,76.63
2022-11-13T22:46:30.348Z,67.03
2022-11-13T22:48:58.495Z,59.40
2022-11-13T22:51:27.319Z,64.60
2022-11-13T22:53:55.730Z,84.67
2022-11-13T22:56:24.127Z,70.27
2022-11-13T22:58:52.599Z,63.23
2022-11-13T23:01:25.034Z,52.07
2022-11-13T23:03:52.752Z,50.73
2022-11-13T23:06:22.395Z,51.67
2022-11-13T23:08:50.023Z,51.37
2022-11-13T23:11:40.153Z,51.27
2022-11-13T23:14:08.567Z,51.83
2022-11-13T23:16:35.668Z,56.17
2022-11-13T23:19:03.339Z,57.00
2022-11-13T23:21:30.969Z,54.57
2022-11-13T23:23:58.284Z,56.33
2022-11-13T23:26:25.874Z,55.27
2022-11-13T23:28:52.995Z,55.83
2022-11-13T23:31:20.408Z,53.43
2022-11-13T23:33:47.539Z,54.80
2022-11-13T23:36:15.086Z,64.73
2022-11-13T23:38:42.434Z,63.50
2022-11-13T23:41:09.915Z,64.87
2022-11-13T23:44:07.206Z,61.23
2022-11-13T23:46:24.499Z,59.80
2022-11-13T23:48:51.568Z,66.10
2022-11-13T23:51:18.645Z,62.67
2022-11-13T23:53:45.808Z,57.13
2022-11-13T23:56:12.900Z,58.73
2022-11-13T23:58:39.965Z,51.63
